• Join FlightAware (Why Join?)
  • Login
  • US Flag 
10:37AM EST


 

Airport Tracker/Info


-or-


 

Live Flight TrackerFlight Track Log ✈ SKW5476 ✈ 30-Apr-2013 ✈ KRDM - KPDX

Flight Track Log - Related Links

Times and Time Zones

All times are in EDT time to prevent confusion due to time zone crossing. See the SKW5476 flight status page for this flight to view local times or setup timezone preferences in your user account.

Time Position Orientation Groundspeed Altitude Reporting Facility
EDT Latitude Longitude Course Direction KTS MPH feet Rate Location/Type
05:20PM 44.2983 -121.1675 316° Northwest 156 180 6,400  Level Seattle Center
05:21PM 44.3292 -121.2172 311° West 171 197 8,500 1,800 Climbing Seattle Center
05:22PM 44.3157 -121.4086 315° West  Level FlightAware Approximate
05:22PM 44.3583 -121.2694 308° West 171 197 10,100  Level Seattle Center
05:23PM 44.3634 -121.4634 324° Northwest  Level FlightAware Approximate
05:23PM 44.3839 -121.3264 302° West 172 198 12,000  Level Seattle Center
05:24PM 44.3952 -121.5333 315° West  Level FlightAware Approximate
05:24PM 44.4133 -121.3736 311° West 164 189 13,900  Level Seattle Center
05:25PM 44.4403 -121.4247 306° West 164 189 15,500 1,020 Climbing Seattle Center
05:26PM 44.4706 -121.4783 308° West 174 200 16,000 240 Climbing Seattle Center
05:27PM 44.5111 -121.5494 309° West 224 258 16,000 -60 Level Seattle Center
05:28PM 44.5483 -121.6172 308° West 222 255 15,900 -60 Descending Seattle Center
05:29PM 44.5844 -121.6850 307° West 218 251 15,900 -60 Level Seattle Center
05:30PM 44.6208 -121.7533 307° West 218 251 15,800 -60 Descending Seattle Center
05:31PM 44.6583 -121.8231 307° West 223 257 15,800  Level Seattle Center
05:32PM 44.6967 -121.8919 308° West 224 258 15,800 60 Level Seattle Center
05:33PM 44.7428 -121.9719 309° West 222 255 16,000 -300 Climbing Seattle Center
05:34PM 44.7806 -122.0433 307° West 227 261 15,300 -840 Descending Seattle Center
05:34PM 44.7975 -122.0783 304° West 248 285 14,800 -1,200 Descending Seattle Center
05:35PM 44.8158 -122.1136 306° West 258 297 14,300 -1,320 Descending Seattle Center
05:36PM 44.8667 -122.2050 308° West 259 298 12,800 -1,260 Descending Seattle Center
05:37PM 44.9047 -122.2828 305° West 264 304 11,600 -1,200 Descending Seattle Center
05:38PM 44.9639 -122.3289 331° Northwest 260 299 10,400 -1,200 Descending Seattle Center
05:39PM 45.0481 -122.3542 348° North 251 289 9,000 -720 Descending Seattle Center
05:40PM 45.1039 -122.3619 354° North 230 265 9,000 -480 Level Seattle Center
05:41PM 45.1633 -122.3558 North 221 254 8,200 -1,020 Descending Seattle Center
05:42PM 45.2278 -122.3633 355° North 222 255 7,000 -1,200 Descending Seattle Center
05:43PM 45.2831 -122.3375 18° North 215 247 5,800 -1,020 Descending Seattle Center
05:44PM 45.3425 -122.3097 18° North 208 239 5,000 -420 Descending Seattle Center
05:45PM 45.3953 -122.2819 20° North 208 239 5,000 -600 Level Seattle Center
05:46PM 45.4525 -122.2858 357° North 223 257 3,900 -1,020 Descending Seattle Center
05:47PM 45.4972 -122.3444 317° Northwest 224 258 3,000 -660 Descending Seattle Center
05:48PM 45.5242 -122.4136 299° West 188 216 2,600 -420 Descending Seattle Center